Time;durP1;ratioP1;P1;durP2;ratioP2;P2;SDS_P1;SDS_P2;PMS_P1;PMS_P2;Temp;Humidity;BMP_temperature;BMP_pressure;BME280_temperature;BME280_humidity;BME280_pressure;Samples;Min_cycle;Max_cycle;Signal;HPM_P1;HPM_P2
2021/06/30 00:02:14;;;;;;;16.33;7.82;;;17.50;73.00;;;;;;5010858;28;20030;-79
2021/06/30 00:04:40;;;;;;;12.30;7.00;;;17.50;73.20;;;;;;4994304;28;20591;-79
2021/06/30 00:07:07;;;;;;;12.88;7.13;;;17.40;73.30;;;;;;5027215;28;20037;-80
2021/06/30 00:09:32;;;;;;;12.27;7.32;;;17.40;73.40;;;;;;5027078;28;20487;-80
2021/06/30 00:11:58;;;;;;;13.40;7.90;;;17.40;73.70;;;;;;5026862;28;20289;-79
2021/06/30 00:14:24;;;;;;;11.88;7.43;;;17.30;74.00;;;;;;5026973;28;20071;-80
2021/06/30 00:16:51;;;;;;;20.08;8.10;;;17.30;74.30;;;;;;5010574;28;20384;-80
2021/06/30 00:19:17;;;;;;;16.45;7.60;;;17.30;74.60;;;;;;5026871;28;20519;-80
2021/06/30 00:21:43;;;;;;;17.48;8.50;;;17.30;74.80;;;;;;5028126;28;20460;-80
2021/06/30 00:24:09;;;;;;;16.58;7.43;;;17.30;75.10;;;;;;5010367;28;20033;-80
2021/06/30 00:26:37;;;;;;;15.73;8.20;;;17.20;75.20;;;;;;5043059;28;20029;-79
2021/06/30 00:29:04;;;;;;;10.93;6.55;;;17.30;76.00;;;;;;5026759;28;20090;-80
2021/06/30 00:31:30;;;;;;;15.75;7.80;;;17.20;75.40;;;;;;5010121;28;20087;-80
2021/06/30 00:33:56;;;;;;;13.45;6.85;;;17.20;75.40;;;;;;5010221;28;20029;-78
2021/06/30 00:36:22;;;;;;;13.80;7.22;;;17.20;75.60;;;;;;5026359;28;20037;-79
2021/06/30 00:38:47;;;;;;;14.73;7.63;;;17.20;75.80;;;;;;5026608;28;20455;-80
2021/06/30 00:41:13;;;;;;;16.55;9.32;;;17.20;76.00;;;;;;5010292;28;20054;-79
2021/06/30 00:43:39;;;;;;;12.00;7.60;;;17.10;76.30;;;;;;5026615;28;20026;-80
2021/06/30 00:46:05;;;;;;;17.63;8.40;;;17.20;76.70;;;;;;5026518;28;20040;-79
2021/06/30 00:48:30;;;;;;;12.65;6.85;;;17.20;77.10;;;;;;5009995;28;20033;-79
2021/06/30 00:50:56;;;;;;;12.10;6.90;;;17.40;77.30;;;;;;5010022;28;20487;-78
2021/06/30 00:53:22;;;;;;;11.00;7.30;;;17.50;77.10;;;;;;4993555;28;20029;-80
2021/06/30 00:55:51;;;;;;;17.02;7.10;;;17.60;76.90;;;;;;5026494;28;20030;-80
2021/06/30 00:58:17;;;;;;;14.10;7.70;;;17.60;76.90;;;;;;5009962;28;20033;-80
2021/06/30 01:00:42;;;;;;;14.20;7.47;;;17.70;76.80;;;;;;5026717;28;20037;-80
2021/06/30 01:03:11;;;;;;;12.00;7.13;;;17.80;76.70;;;;;;5026328;28;20030;-80
2021/06/30 01:05:37;;;;;;;15.63;7.43;;;17.90;76.80;;;;;;5026307;28;20094;-80
2021/06/30 01:08:04;;;;;;;15.40;8.30;;;18.00;76.70;;;;;;5026369;28;20653;-80
2021/06/30 01:10:30;;;;;;;20.88;8.25;;;18.00;76.70;;;;;;5043030;28;20084;-80
2021/06/30 01:12:55;;;;;;;15.02;7.28;;;18.10;76.70;;;;;;5009672;28;20086;-79
2021/06/30 01:15:21;;;;;;;9.82;6.45;;;18.20;76.70;;;;;;5010068;28;20037;-80
2021/06/30 01:17:50;;;;;;;19.05;9.00;;;18.30;76.60;;;;;;4993585;28;20064;-79
2021/06/30 01:20:18;;;;;;;16.40;7.55;;;18.30;76.60;;;;;;5010156;28;20045;-80
2021/06/30 01:23:01;;;;;;;17.15;7.93;;;18.30;76.50;;;;;;5027540;28;20096;-78
2021/06/30 01:25:27;;;;;;;13.52;8.52;;;18.30;76.50;;;;;;5026125;28;20026;-79
2021/06/30 01:27:52;;;;;;;10.23;7.53;;;18.30;76.60;;;;;;5026538;28;20029;-80
2021/06/30 01:30:18;;;;;;;19.05;8.75;;;18.30;76.60;;;;;;5026184;28;20036;-80
2021/06/30 01:32:44;;;;;;;14.50;7.22;;;18.40;76.70;;;;;;4993248;28;20038;-80
2021/06/30 01:35:17;;;;;;;11.35;7.07;;;18.40;76.70;;;;;;5009508;28;20029;-80
2021/06/30 01:37:45;;;;;;;13.27;7.47;;;18.40;76.70;;;;;;5026024;28;20029;-80
2021/06/30 01:40:11;;;;;;;11.07;7.47;;;18.40;76.80;;;;;;5030642;28;20026;-80
2021/06/30 01:42:37;;;;;;;13.40;7.53;;;18.50;76.80;;;;;;5013335;28;20377;-79
2021/06/30 01:45:03;;;;;;;12.68;7.80;;;18.50;76.90;;;;;;4997060;28;20056;-79
2021/06/30 01:47:29;;;;;;;13.60;7.82;;;18.50;77.10;;;;;;5013314;28;20598;-80
2021/06/30 01:49:54;;;;;;;15.38;8.18;;;18.50;77.10;;;;;;4996856;28;20128;-79
2021/06/30 01:52:20;;;;;;;12.52;7.40;;;18.60;77.30;;;;;;5013139;28;20030;-79
2021/06/30 01:54:46;;;;;;;10.95;7.95;;;18.60;77.30;;;;;;5013203;28;20029;-80
2021/06/30 01:57:12;;;;;;;13.85;7.57;;;18.60;77.40;;;;;;4996703;28;20094;-81
2021/06/30 01:59:37;;;;;;;11.98;8.15;;;18.70;77.50;;;;;;5013349;28;20033;-80
2021/06/30 02:02:04;;;;;;;11.70;8.20;;;18.60;77.60;;;;;;5012988;28;20164;-80
2021/06/30 02:04:30;;;;;;;13.13;8.75;;;18.60;77.70;;;;;;5046096;28;20092;-81
2021/06/30 02:06:55;;;;;;;11.25;8.90;;;18.60;77.90;;;;;;4996712;28;20052;-80
2021/06/30 02:09:21;;;;;;;18.48;10.20;;;18.50;78.10;;;;;;5030591;28;20472;-80
2021/06/30 02:11:47;;;;;;;15.63;10.45;;;18.40;78.30;;;;;;5012864;28;20524;-80
2021/06/30 02:14:12;;;;;;;19.35;10.15;;;18.40;78.60;;;;;;5029379;28;20060;-80
2021/06/30 02:16:38;;;;;;;11.57;9.35;;;18.40;78.60;;;;;;4996413;28;20037;-80
2021/06/30 02:19:06;;;;;;;13.55;10.68;;;18.40;78.80;;;;;;5029435;28;20033;-80
2021/06/30 02:21:33;;;;;;;17.85;10.85;;;18.30;78.70;;;;;;5029279;28;20108;-80
2021/06/30 02:23:59;;;;;;;16.88;10.60;;;18.30;78.80;;;;;;5012869;28;20483;-81
2021/06/30 02:26:26;;;;;;;20.35;10.15;;;18.30;78.90;;;;;;5028969;28;20567;-80
2021/06/30 02:28:52;;;;;;;13.65;9.73;;;18.20;79.00;;;;;;4996606;28;20043;-81
2021/06/30 02:31:18;;;;;;;17.42;11.27;;;18.20;79.00;;;;;;5012512;28;20080;-80
2021/06/30 02:33:45;;;;;;;13.73;9.95;;;18.20;79.10;;;;;;5029004;28;20033;-80
2021/06/30 02:36:11;;;;;;;14.75;11.65;;;18.20;79.30;;;;;;5028745;28;20116;-80
2021/06/30 02:38:37;;;;;;;15.18;10.20;;;18.20;79.40;;;;;;5028786;28;20262;-80
2021/06/30 02:41:03;;;;;;;15.63;9.80;;;18.10;79.40;;;;;;5029037;28;20029;-81
2021/06/30 02:43:29;;;;;;;14.77;10.38;;;18.00;79.50;;;;;;5029929;28;20083;-81
2021/06/30 02:45:55;;;;;;;16.17;9.93;;;17.90;79.60;;;;;;5028701;28;20469;-80
2021/06/30 02:48:23;;;;;;;13.73;10.65;;;17.90;79.70;;;;;;5028622;28;20415;-79
2021/06/30 02:50:48;;;;;;;14.82;10.65;;;17.80;79.80;;;;;;5012383;28;20033;-79
2021/06/30 02:53:15;;;;;;;16.85;11.27;;;17.80;79.90;;;;;;5028777;28;20048;-80
2021/06/30 02:55:41;;;;;;;12.32;9.70;;;17.70;79.80;;;;;;5012233;28;20033;-81
2021/06/30 02:58:07;;;;;;;16.83;10.88;;;17.60;80.50;;;;;;5011908;28;20042;-80
2021/06/30 03:00:33;;;;;;;16.85;10.18;;;17.50;80.10;;;;;;4995759;28;20034;-80
2021/06/30 03:02:59;;;;;;;14.55;10.80;;;17.40;80.30;;;;;;5030068;28;20060;-80
2021/06/30 03:05:25;;;;;;;11.43;9.95;;;17.40;80.40;;;;;;5011890;28;20026;-80
2021/06/30 03:07:51;;;;;;;15.32;10.77;;;17.40;80.40;;;;;;5028478;28;20029;-80
2021/06/30 03:10:18;;;;;;;12.00;9.93;;;17.40;80.50;;;;;;4995660;28;20025;-80
2021/06/30 03:12:44;;;;;;;15.88;10.38;;;17.40;80.40;;;;;;5011384;28;20136;-80
2021/06/30 03:15:11;;;;;;;13.25;10.18;;;17.40;80.20;;;;;;5028012;28;20033;-80
2021/06/30 03:17:37;;;;;;;14.88;11.60;;;17.30;80.20;;;;;;5011837;28;20124;-80
2021/06/30 03:20:09;;;;;;;11.60;9.68;;;17.30;80.20;;;;;;5011674;28;20130;-79
2021/06/30 03:22:36;;;;;;;14.23;10.52;;;17.30;80.20;;;;;;5028090;28;20164;-80
2021/06/30 03:25:02;;;;;;;13.43;9.35;;;17.30;80.00;;;;;;5028010;28;20091;-80
2021/06/30 03:27:27;;;;;;;12.95;9.98;;;17.30;79.60;;;;;;5029113;28;20496;-80
2021/06/30 03:29:53;;;;;;;11.60;9.82;;;17.10;79.30;;;;;;5011509;28;20033;-80
2021/06/30 03:32:19;;;;;;;16.42;9.77;;;17.00;79.40;;;;;;5027856;28;20172;-80
2021/06/30 03:34:45;;;;;;;18.02;9.65;;;16.90;79.50;;;;;;5027914;28;20425;-79
2021/06/30 03:37:10;;;;;;;11.25;9.38;;;16.80;79.70;;;;;;5027739;28;20532;-81
2021/06/30 03:39:38;;;;;;;12.50;8.27;;;16.80;79.70;;;;;;5029018;28;20037;-80
2021/06/30 03:42:04;;;;;;;10.25;8.70;;;16.90;79.50;;;;;;5027612;28;20510;-81
2021/06/30 03:44:30;;;;;;;11.05;8.93;;;16.90;79.20;;;;;;5011117;28;20072;-79
2021/06/30 03:46:55;;;;;;;12.82;9.18;;;17.00;78.70;;;;;;5027323;28;20052;-80
2021/06/30 03:49:21;;;;;;;13.23;9.27;;;17.00;78.50;;;;;;5011155;28;20313;-80
2021/06/30 03:51:48;;;;;;;13.07;8.82;;;16.90;78.30;;;;;;5011064;28;20083;-80
2021/06/30 03:54:13;;;;;;;15.60;9.27;;;16.70;78.50;;;;;;5027305;28;20534;-79
2021/06/30 03:56:39;;;;;;;12.48;9.35;;;16.70;78.70;;;;;;5027257;28;20034;-80
2021/06/30 03:59:05;;;;;;;12.30;8.88;;;16.70;78.90;;;;;;5011025;28;20042;-80
2021/06/30 04:01:31;;;;;;;9.00;7.82;;;16.70;78.70;;;;;;5026637;28;20132;-80
2021/06/30 04:04:00;;;;;;;11.30;8.43;;;16.70;78.70;;;;;;5028554;28;20026;-80
2021/06/30 04:06:27;;;;;;;12.98;8.57;;;16.80;78.50;;;;;;5027368;28;20021;-80
2021/06/30 04:08:52;;;;;;;12.02;8.23;;;16.80;78.10;;;;;;5027210;28;20037;-80
2021/06/30 04:11:18;;;;;;;10.73;9.63;;;16.80;78.00;;;;;;5028253;28;20121;-80
2021/06/30 04:13:45;;;;;;;12.25;9.25;;;16.80;77.80;;;;;;5028139;28;20064;-80
2021/06/30 04:16:11;;;;;;;11.00;8.27;;;16.70;77.80;;;;;;5010637;28;20045;-79
2021/06/30 04:18:37;;;;;;;12.25;9.68;;;16.80;77.90;;;;;;5027048;28;20037;-79
2021/06/30 04:21:03;;;;;;;11.70;8.35;;;16.80;77.90;;;;;;5026965;28;20036;-80
2021/06/30 04:23:29;;;;;;;16.73;9.38;;;16.80;77.90;;;;;;5010571;28;20024;-80
2021/06/30 04:25:54;;;;;;;11.82;8.70;;;16.80;77.70;;;;;;5010367;28;20033;-80
2021/06/30 04:28:20;;;;;;;14.10;8.95;;;16.80;77.70;;;;;;5026980;28;20046;-80
2021/06/30 04:30:46;;;;;;;15.73;9.75;;;16.80;77.60;;;;;;5010465;28;20048;-79
2021/06/30 04:33:12;;;;;;;11.00;8.63;;;16.80;77.70;;;;;;5026844;28;20026;-80
2021/06/30 04:35:37;;;;;;;12.75;8.52;;;16.80;77.70;;;;;;5026489;28;20045;-80
2021/06/30 04:38:04;;;;;;;12.20;8.57;;;16.80;77.70;;;;;;5026369;28;20035;-79
2021/06/30 04:40:29;;;;;;;13.05;8.25;;;16.80;77.70;;;;;;5010343;28;20076;-81
2021/06/30 04:42:55;;;;;;;10.63;8.48;;;16.70;77.60;;;;;;5026498;28;20022;-80
2021/06/30 04:45:21;;;;;;;11.52;8.80;;;16.70;77.80;;;;;;5026630;28;20061;-80
2021/06/30 04:47:47;;;;;;;9.80;8.77;;;16.80;77.90;;;;;;5026411;28;20068;-80
2021/06/30 04:50:13;;;;;;;10.15;8.32;;;16.90;77.80;;;;;;4993854;28;20033;-79
2021/06/30 04:52:39;;;;;;;11.85;8.75;;;16.90;77.50;;;;;;5026453;28;20395;-80
2021/06/30 04:55:06;;;;;;;13.73;8.30;;;17.00;77.40;;;;;;5010203;28;20468;-79
2021/06/30 04:57:32;;;;;;;12.45;8.63;;;17.00;77.30;;;;;;5010001;28;20381;-80
2021/06/30 04:59:57;;;;;;;11.43;9.07;;;17.00;77.60;;;;;;5028016;28;20096;-80
2021/06/30 05:02:23;;;;;;;13.73;10.13;;;17.00;77.00;;;;;;5009976;28;20037;-80
2021/06/30 05:04:49;;;;;;;13.02;9.77;;;17.00;76.90;;;;;;5026480;28;20244;-79
2021/06/30 05:07:14;;;;;;;12.13;8.48;;;16.90;76.90;;;;;;5009757;28;20080;-80
2021/06/30 05:09:40;;;;;;;12.85;8.90;;;16.90;77.00;;;;;;4993667;28;20197;-79
2021/06/30 05:12:06;;;;;;;16.13;10.05;;;16.90;77.00;;;;;;5009857;28;20140;-80
2021/06/30 05:14:32;;;;;;;11.82;9.43;;;16.80;77.10;;;;;;5028820;28;20060;-79
2021/06/30 05:16:57;;;;;;;12.30;9.38;;;16.70;77.30;;;;;;5030174;28;20030;-80
2021/06/30 05:19:23;;;;;;;13.05;9.93;;;16.70;77.40;;;;;;5013787;28;20029;-79
2021/06/30 05:21:49;;;;;;;11.13;9.85;;;16.70;77.40;;;;;;5013474;28;20057;-79
2021/06/30 05:24:15;;;;;;;15.00;10.20;;;16.70;77.30;;;;;;5030046;28;20373;-80
2021/06/30 05:26:40;;;;;;;12.70;9.90;;;16.70;77.50;;;;;;4997216;28;20392;-81
2021/06/30 05:29:06;;;;;;;15.02;10.68;;;16.60;77.50;;;;;;5030154;28;20037;-79
2021/06/30 05:31:32;;;;;;;13.95;10.70;;;16.50;77.50;;;;;;5013742;28;20061;-79
2021/06/30 05:33:58;;;;;;;13.73;10.70;;;16.50;77.80;;;;;;5013502;28;20106;-80
2021/06/30 05:36:23;;;;;;;12.57;9.30;;;16.50;78.10;;;;;;5013427;28;20399;-79
2021/06/30 05:38:49;;;;;;;13.07;9.75;;;16.50;78.00;;;;;;5013570;28;20035;-80
2021/06/30 05:41:15;;;;;;;11.48;9.48;;;16.50;77.80;;;;;;5013370;28;20029;-80
2021/06/30 05:43:41;;;;;;;12.10;9.25;;;16.60;77.90;;;;;;5013399;28;20049;-80
2021/06/30 05:46:06;;;;;;;15.75;10.27;;;16.60;77.80;;;;;;5046355;28;20033;-80
2021/06/30 05:48:32;;;;;;;15.07;9.95;;;16.60;77.70;;;;;;5029640;28;20035;-80
2021/06/30 05:50:59;;;;;;;11.02;9.40;;;16.60;77.60;;;;;;5029949;28;20030;-81
2021/06/30 05:53:25;;;;;;;51.90;12.15;;;16.60;78.00;;;;;;5013059;28;20091;-80
2021/06/30 05:55:51;;;;;;;18.30;10.82;;;16.60;77.70;;;;;;5013014;28;20174;-81
2021/06/30 05:58:16;;;;;;;11.50;9.73;;;16.70;77.70;;;;;;5030034;28;20026;-80
2021/06/30 06:00:42;;;;;;;11.32;10.13;;;16.90;77.60;;;;;;5013526;28;20025;-80
2021/06/30 06:03:09;;;;;;;11.50;9.48;;;17.00;77.20;;;;;;5031138;28;20037;-80
2021/06/30 06:05:35;;;;;;;13.48;10.50;;;17.10;77.00;;;;;;5029852;28;20136;-80
2021/06/30 06:08:01;;;;;;;12.55;9.02;;;17.10;76.80;;;;;;5029196;28;20032;-71
2021/06/30 06:10:27;;;;;;;11.43;10.23;;;17.10;76.60;;;;;;5030178;28;20391;-70
2021/06/30 06:12:52;;;;;;;15.93;11.63;;;17.10;76.60;;;;;;5029869;28;20103;-81
2021/06/30 06:15:18;;;;;;;16.15;11.35;;;17.10;76.50;;;;;;4995793;28;20121;-80
2021/06/30 06:17:44;;;;;;;15.32;10.73;;;17.10;76.60;;;;;;5012212;28;20041;-81
2021/06/30 06:20:10;;;;;;;12.32;10.27;;;17.00;76.60;;;;;;5029267;28;20022;-80
2021/06/30 06:22:37;;;;;;;14.60;11.07;;;17.10;76.60;;;;;;5028155;28;20441;-79
2021/06/30 06:25:04;;;;;;;13.82;11.02;;;17.20;76.60;;;;;;5027329;28;20018;-80
2021/06/30 06:27:31;;;;;;;13.23;10.10;;;17.30;76.50;;;;;;5010843;28;20117;-79
2021/06/30 06:29:56;;;;;;;11.65;9.95;;;17.40;76.30;;;;;;5011184;28;20030;-81
2021/06/30 06:32:22;;;;;;;12.27;10.98;;;17.50;76.20;;;;;;5011195;28;20553;-81
2021/06/30 06:34:48;;;;;;;14.13;11.10;;;17.60;75.80;;;;;;5011337;28;20036;-80
2021/06/30 06:37:16;;;;;;;13.02;9.68;;;17.70;75.60;;;;;;5027486;28;20344;-80
2021/06/30 06:39:42;;;;;;;33.65;11.00;;;17.80;75.50;;;;;;5027579;28;20024;-80
2021/06/30 06:42:09;;;;;;;12.75;10.00;;;17.90;75.40;;;;;;5011247;28;20032;-80
2021/06/30 06:44:37;;;;;;;13.50;10.27;;;18.00;75.00;;;;;;5027458;28;20026;-81
2021/06/30 06:47:03;;;;;;;11.80;9.60;;;18.00;74.70;;;;;;5027065;28;20029;-81
2021/06/30 06:49:29;;;;;;;12.27;9.63;;;18.10;74.60;;;;;;4994694;28;20095;-81
2021/06/30 06:51:54;;;;;;;11.82;9.80;;;18.20;74.40;;;;;;5027197;28;20044;-80
2021/06/30 06:54:20;;;;;;;9.80;8.82;;;18.30;74.20;;;;;;5011833;28;20030;-82
2021/06/30 06:56:46;;;;;;;11.98;9.52;;;18.40;73.90;;;;;;5026880;28;20056;-79
2021/06/30 06:59:12;;;;;;;10.57;9.40;;;18.50;73.80;;;;;;5027025;28;20021;-79
2021/06/30 07:01:37;;;;;;;12.07;9.95;;;18.60;73.70;;;;;;5027277;28;20468;-79
2021/06/30 07:04:03;;;;;;;11.32;9.93;;;18.70;73.30;;;;;;5027028;28;20033;-80
2021/06/30 07:06:29;;;;;;;10.73;9.63;;;18.70;72.90;;;;;;5026964;28;20056;-81
2021/06/30 07:08:55;;;;;;;15.52;9.07;;;18.80;72.90;;;;;;5043686;28;20029;-80
2021/06/30 07:11:21;;;;;;;15.77;8.90;;;18.80;72.80;;;;;;5010560;28;20095;-80
2021/06/30 07:13:47;;;;;;;11.38;9.20;;;18.90;72.80;;;;;;4986971;28;1167168;-80
2021/06/30 07:16:13;;;;;;;12.02;9.60;;;18.90;72.50;;;;;;5044283;28;20106;-81
2021/06/30 07:18:39;;;;;;;13.35;10.18;;;18.90;72.50;;;;;;5027948;28;20075;-81
2021/06/30 07:21:08;;;;;;;13.40;9.30;;;19.00;72.40;;;;;;5027713;28;20442;-80
2021/06/30 07:23:34;;;;;;;13.75;9.50;;;19.00;72.30;;;;;;5029099;28;20069;-80
2021/06/30 07:26:00;;;;;;;13.82;9.93;;;19.10;72.20;;;;;;5028194;28;20030;-80
2021/06/30 07:28:26;;;;;;;11.90;9.23;;;19.20;72.10;;;;;;5027382;28;20095;-80
2021/06/30 07:30:52;;;;;;;12.70;9.30;;;19.20;72.00;;;;;;5044280;28;20419;-81
2021/06/30 07:33:19;;;;;;;14.98;9.98;;;19.20;72.00;;;;;;5027312;28;20136;-80
2021/06/30 07:35:45;;;;;;;16.02;9.95;;;19.30;72.00;;;;;;5027125;28;20493;-81
2021/06/30 07:38:10;;;;;;;11.77;9.27;;;19.40;71.80;;;;;;5028512;28;20025;-80
2021/06/30 07:40:37;;;;;;;15.70;9.20;;;19.40;71.60;;;;;;5027769;28;20032;-79
2021/06/30 07:43:04;;;;;;;10.73;9.60;;;19.50;71.50;;;;;;5011049;28;20052;-81
2021/06/30 07:45:31;;;;;;;19.35;10.18;;;19.70;71.20;;;;;;5028719;28;20100;-80
2021/06/30 07:47:57;;;;;;;13.07;10.02;;;19.70;70.80;;;;;;5028257;28;20022;-79
2021/06/30 07:50:23;;;;;;;13.68;9.90;;;19.80;70.70;;;;;;5010903;28;20375;-81
2021/06/30 07:52:49;;;;;;;12.85;8.45;;;19.80;70.50;;;;;;5026841;28;20036;-79
2021/06/30 07:55:16;;;;;;;9.90;8.18;;;19.90;70.20;;;;;;5027144;28;20116;-79
2021/06/30 07:57:42;;;;;;;11.85;9.15;;;19.80;70.10;;;;;;5010518;28;20478;-79
2021/06/30 08:00:09;;;;;;;11.00;8.30;;;19.70;70.30;;;;;;5026897;28;20021;-80
2021/06/30 08:02:36;;;;;;;13.38;9.05;;;19.70;70.00;;;;;;5027996;28;20025;-81
2021/06/30 08:05:06;;;;;;;17.17;10.40;;;19.50;70.00;;;;;;5026967;28;20030;-79
2021/06/30 08:07:32;;;;;;;13.35;9.98;;;19.40;70.40;;;;;;5026373;28;20029;-80
2021/06/30 08:09:58;;;;;;;13.02;9.32;;;19.40;70.70;;;;;;5026511;28;20025;-80
2021/06/30 08:12:24;;;;;;;10.32;8.55;;;19.60;70.70;;;;;;5027836;28;20037;-78
2021/06/30 08:14:50;;;;;;;13.18;8.48;;;19.70;70.20;;;;;;5021059;28;20094;-80
2021/06/30 08:17:15;;;;;;;10.68;8.20;;;19.80;69.80;;;;;;5030392;28;20044;-81
2021/06/30 08:19:41;;;;;;;11.77;8.18;;;20.00;69.60;;;;;;4994830;28;20055;-80
2021/06/30 08:22:10;;;;;;;9.25;7.90;;;20.10;69.10;;;;;;4998243;28;20400;-81
2021/06/30 08:24:41;;;;;;;12.93;7.38;;;20.20;68.90;;;;;;5031038;28;20018;-80
2021/06/30 08:27:08;;;;;;;14.32;7.80;;;20.30;68.70;;;;;;5006178;28;20108;-80
2021/06/30 08:29:35;;;;;;;9.77;7.50;;;20.40;68.30;;;;;;5006282;28;20465;-78
2021/06/30 08:32:01;;;;;;;13.18;8.43;;;20.50;68.10;;;;;;5046629;28;20030;-80
2021/06/30 08:34:27;;;;;;;10.55;7.13;;;20.50;67.80;;;;;;4994882;28;20098;-80
2021/06/30 08:37:05;;;;;;;11.95;7.10;;;20.50;67.70;;;;;;4997148;28;20038;-81
2021/06/30 08:39:32;;;;;;;14.43;7.60;;;20.50;67.40;;;;;;5010632;28;20484;-81
2021/06/30 08:41:58;;;;;;;10.63;6.75;;;20.40;67.40;;;;;;5007322;28;20079;-82
2021/06/30 08:44:24;;;;;;;10.18;6.53;;;20.40;67.40;;;;;;5006380;28;20037;-79
2021/06/30 08:46:50;;;;;;;10.68;7.85;;;20.50;67.30;;;;;;5006092;28;20041;-79
2021/06/30 08:49:19;;;;;;;11.05;6.53;;;20.60;67.20;;;;;;5005708;28;20037;-79
2021/06/30 08:51:45;;;;;;;10.90;6.75;;;20.70;67.00;;;;;;5006442;28;20120;-78
2021/06/30 08:54:12;;;;;;;8.85;6.10;;;20.80;67.20;;;;;;5021793;28;20057;-77
2021/06/30 08:56:40;;;;;;;14.02;7.25;;;20.80;66.30;;;;;;5005751;28;20416;-78
2021/06/30 08:59:06;;;;;;;10.43;6.90;;;20.70;66.00;;;;;;4996730;28;20640;-80
2021/06/30 09:01:32;;;;;;;10.82;6.57;;;20.60;66.50;;;;;;4994329;28;20084;-78
2021/06/30 09:03:58;;;;;;;10.80;6.85;;;20.70;66.40;;;;;;5000663;28;20141;-80
2021/06/30 09:06:25;;;;;;;8.38;6.28;;;20.90;66.00;;;;;;5006286;28;20037;-80
2021/06/30 09:08:51;;;;;;;8.93;6.90;;;20.90;65.70;;;;;;5006527;28;20469;-80
2021/06/30 09:11:19;;;;;;;8.95;7.55;;;21.10;65.50;;;;;;5007329;28;20033;-79
2021/06/30 09:13:46;;;;;;;10.05;7.15;;;21.10;65.00;;;;;;5009395;28;20482;-80
2021/06/30 09:16:12;;;;;;;11.57;7.10;;;21.00;64.90;;;;;;5007868;28;20483;-79
2021/06/30 09:18:40;;;;;;;10.40;7.05;;;20.90;64.90;;;;;;5008003;28;20058;-81
2021/06/30 09:21:22;;;;;;;10.60;7.28;;;20.90;65.10;;;;;;5009073;28;20084;-80
2021/06/30 09:24:11;;;;;;;15.82;7.97;;;20.90;64.80;;;;;;5030271;28;20436;-78
2021/06/30 09:26:51;;;;;;;12.98;7.10;;;20.80;64.70;;;;;;5040487;28;20030;-80
2021/06/30 09:29:19;;;;;;;8.43;7.60;;;20.70;64.70;;;;;;4999487;28;20026;-80
2021/06/30 09:31:48;;;;;;;11.60;7.03;;;20.60;64.80;;;;;;4996533;28;20485;-80
2021/06/30 09:34:22;;;;;;;9.95;7.50;;;20.70;64.90;;;;;;5003900;28;20049;-80
2021/06/30 09:37:11;;;;;;;8.57;6.70;;;20.80;64.90;;;;;;5024544;28;20444;-79
2021/06/30 09:39:54;;;;;;;9.70;7.80;;;21.00;64.50;;;;;;5008797;28;20034;-81
2021/06/30 09:42:20;;;;;;;10.07;7.05;;;21.10;63.80;;;;;;5023337;28;20046;-81
2021/06/30 09:44:45;;;;;;;11.95;7.70;;;21.00;64.10;;;;;;5040689;28;20491;-79
2021/06/30 09:47:11;;;;;;;10.25;6.93;;;21.00;64.10;;;;;;5034693;28;20041;-80
2021/06/30 09:49:38;;;;;;;8.07;7.28;;;21.00;63.80;;;;;;5007799;28;20040;-80
2021/06/30 09:52:06;;;;;;;14.55;7.43;;;21.20;63.70;;;;;;5003330;28;20034;-76
2021/06/30 09:54:32;;;;;;;11.23;8.48;;;21.30;63.30;;;;;;5020825;28;20284;-79
2021/06/30 09:57:06;;;;;;;8.60;7.43;;;21.30;62.90;;;;;;4998945;28;20476;-79
2021/06/30 09:59:37;;;;;;;10.23;7.72;;;21.20;63.00;;;;;;5008522;28;20030;-78
2021/06/30 10:02:14;;;;;;;13.77;7.53;;;21.30;62.90;;;;;;5012735;28;20037;-79
2021/06/30 10:05:00;;;;;;;9.48;7.18;;;21.50;63.00;;;;;;5011531;28;20380;-81
2021/06/30 10:07:28;;;;;;;9.57;7.47;;;21.70;62.70;;;;;;5000518;28;20029;-80
2021/06/30 10:10:08;;;;;;;12.52;8.05;;;21.90;62.30;;;;;;5011872;28;20030;-81
2021/06/30 10:12:36;;;;;;;10.52;7.65;;;21.70;62.30;;;;;;5013599;28;20042;-79
2021/06/30 10:15:05;;;;;;;8.50;7.43;;;21.70;62.50;;;;;;5013374;28;20022;-80
2021/06/30 10:17:31;;;;;;;12.13;7.67;;;21.80;62.50;;;;;;5012710;28;20424;-77
2021/06/30 10:19:59;;;;;;;11.07;7.82;;;22.00;62.40;;;;;;5012826;28;20022;-82
2021/06/30 10:22:26;;;;;;;8.77;7.55;;;22.20;62.00;;;;;;5013642;28;20033;-80
2021/06/30 10:24:53;;;;;;;8.40;6.82;;;22.40;61.60;;;;;;4998784;28;20085;-80
2021/06/30 10:27:19;;;;;;;10.52;7.72;;;22.50;61.10;;;;;;5008696;28;20484;-81
2021/06/30 10:29:54;;;;;;;8.40;7.30;;;22.70;60.70;;;;;;5006493;28;20042;-80
2021/06/30 10:32:21;;;;;;;11.27;7.53;;;23.00;60.50;;;;;;5012396;28;20119;-81
2021/06/30 10:34:51;;;;;;;9.80;7.18;;;23.40;60.10;;;;;;5053278;28;20030;-82
2021/06/30 10:37:21;;;;;;;11.07;7.47;;;23.50;60.00;;;;;;5013265;28;20037;-81
2021/06/30 10:40:02;;;;;;;11.90;7.97;;;23.70;59.70;;;;;;5013710;28;20052;-81
2021/06/30 10:42:43;;;;;;;7.03;6.32;;;24.00;59.00;;;;;;5013797;28;20022;-79
2021/06/30 10:45:15;;;;;;;7.95;6.38;;;24.50;58.60;;;;;;5013564;28;20089;-78
2021/06/30 10:47:43;;;;;;;13.70;7.38;;;24.90;58.00;;;;;;5011755;28;20030;-79
2021/06/30 10:50:28;;;;;;;7.95;6.60;;;25.30;57.30;;;;;;5013397;28;20031;-79
2021/06/30 10:53:12;;;;;;;14.95;7.63;;;25.80;56.80;;;;;;5012183;28;20112;-81
2021/06/30 10:55:41;;;;;;;7.13;6.38;;;26.30;56.00;;;;;;5045475;28;20037;-79
2021/06/30 10:58:13;;;;;;;8.03;6.67;;;27.00;55.90;;;;;;5013906;28;20101;-80
2021/06/30 11:00:51;;;;;;;7.90;6.55;;;27.60;54.30;;;;;;5044451;28;20623;-80
2021/06/30 11:03:37;;;;;;;7.30;6.60;;;27.80;53.60;;;;;;5011365;28;20028;-80
2021/06/30 11:06:06;;;;;;;9.82;7.07;;;28.40;53.50;;;;;;5010661;28;20030;-79
2021/06/30 11:08:50;;;;;;;10.00;6.28;;;29.00;52.70;;;;;;4992941;28;20498;-82
2021/06/30 11:11:29;;;;;;;9.75;6.43;;;29.10;51.50;;;;;;4995558;28;20022;-80
2021/06/30 11:14:08;;;;;;;6.60;5.90;;;29.10;50.90;;;;;;5011576;28;20042;-81
2021/06/30 11:16:37;;;;;;;7.90;6.97;;;29.80;51.10;;;;;;5009749;28;20042;-80
2021/06/30 11:19:23;;;;;;;10.45;6.50;;;31.00;50.60;;;;;;5041531;28;20029;-81
2021/06/30 11:21:56;;;;;;;7.43;6.72;;;32.10;49.10;;;;;;4988826;28;20041;-79
2021/06/30 11:24:47;;;;;;;8.43;7.50;;;32.70;48.20;;;;;;5010024;28;20090;-80
2021/06/30 11:29:53;;;;;;;9.65;7.18;;;33.70;46.20;;;;;;5010784;28;20034;-80
2021/06/30 11:35:23;;;;;;;6.30;5.70;;;35.40;45.10;;;;;;4994819;28;20018;-79
2021/06/30 11:37:58;;;;;;;7.05;5.68;;;36.20;43.80;;;;;;5008423;28;20110;-80
2021/06/30 11:40:30;;;;;;;7.78;5.95;;;36.20;42.70;;;;;;5010429;28;20447;-80
2021/06/30 11:42:58;;;;;;;10.05;5.30;;;36.00;42.20;;;;;;5039815;28;20030;-79
2021/06/30 11:45:31;;;;;;;6.70;6.05;;;35.40;42.20;;;;;;5056069;28;20469;-80
2021/06/30 11:48:05;;;;;;;18.00;6.80;;;35.20;42.60;;;;;;5004465;28;20045;-80
2021/06/30 11:50:42;;;;;;;8.30;6.25;;;35.20;42.50;;;;;;5008388;28;20105;-80
2021/06/30 11:53:08;;;;;;;13.95;8.00;;;34.70;42.00;;;;;;5006220;28;20105;-78
2021/06/30 11:55:39;;;;;;;12.98;7.30;;;34.30;42.50;;;;;;4997132;28;20100;-79
2021/06/30 11:58:06;;;;;;;7.80;7.07;;;34.10;42.40;;;;;;5006871;28;20029;-79
2021/06/30 12:00:34;;;;;;;9.82;6.68;;;33.80;42.40;;;;;;5008871;28;20037;-80
2021/06/30 12:03:02;;;;;;;8.77;7.75;;;33.60;42.60;;;;;;5013294;28;20030;-79
2021/06/30 12:05:29;;;;;;;8.13;6.63;;;33.90;42.80;;;;;;5008777;28;20026;-80
2021/06/30 12:07:56;;;;;;;9.98;6.75;;;33.90;42.50;;;;;;5010212;28;20026;-78
2021/06/30 12:10:29;;;;;;;9.98;6.88;;;33.70;42.50;;;;;;5041719;28;20389;-79
2021/06/30 12:12:56;;;;;;;9.18;6.80;;;33.80;42.70;;;;;;5024864;28;20054;-80
2021/06/30 12:15:22;;;;;;;10.75;7.20;;;34.00;42.30;;;;;;5010145;28;20074;-79
2021/06/30 12:17:50;;;;;;;10.43;7.65;;;33.50;42.10;;;;;;4992339;28;20034;-79
2021/06/30 12:20:19;;;;;;;7.40;6.00;;;33.80;42.80;;;;;;5010001;28;20018;-79
2021/06/30 12:22:45;;;;;;;9.02;6.65;;;34.10;42.50;;;;;;4995862;28;20022;-80
2021/06/30 12:25:17;;;;;;;7.15;6.45;;;33.90;42.10;;;;;;5021910;28;20033;-79
2021/06/30 12:28:03;;;;;;;13.77;6.68;;;33.30;42.10;;;;;;4995084;28;20022;-78
2021/06/30 12:30:31;;;;;;;7.63;5.70;;;33.10;42.40;;;;;;5001277;28;20026;-77
2021/06/30 12:33:00;;;;;;;9.60;6.72;;;33.30;42.30;;;;;;5008197;28;20037;-80
2021/06/30 12:35:28;;;;;;;7.55;6.70;;;33.60;41.60;;;;;;5009911;28;20041;-81
2021/06/30 12:37:54;;;;;;;14.60;6.00;;;33.70;41.60;;;;;;5024899;28;20495;-78
2021/06/30 12:40:20;;;;;;;7.07;6.38;;;33.60;41.60;;;;;;5041592;28;20022;-79
2021/06/30 12:42:57;;;;;;;8.02;6.60;;;33.80;41.60;;;;;;5057869;28;20044;-78
2021/06/30 12:45:34;;;;;;;10.30;7.35;;;33.90;41.40;;;;;;5009166;28;20096;-81
2021/06/30 12:48:03;;;;;;;7.18;6.47;;;34.00;41.30;;;;;;5009657;28;20068;-83